sensor_id;sensor_type;location;lat;lon;timestamp;P1;durP1;ratioP1;P2;durP2;ratioP2
4754;SDS011;2391;47.212;7.542;2023-08-24T00:02:10;6.00;;;3.20;;
4754;SDS011;2391;47.212;7.542;2023-08-24T00:04:36;4.03;;;3.60;;
4754;SDS011;2391;47.212;7.542;2023-08-24T00:07:02;4.20;;;3.37;;
4754;SDS011;2391;47.212;7.542;2023-08-24T00:09:29;6.53;;;3.87;;
4754;SDS011;2391;47.212;7.542;2023-08-24T00:11:54;3.80;;;3.50;;
4754;SDS011;2391;47.212;7.542;2023-08-24T00:14:20;3.37;;;3.17;;
4754;SDS011;2391;47.212;7.542;2023-08-24T00:16:46;4.90;;;3.30;;
4754;SDS011;2391;47.212;7.542;2023-08-24T00:19:12;4.33;;;3.80;;
4754;SDS011;2391;47.212;7.542;2023-08-24T00:21:38;3.93;;;3.63;;
4754;SDS011;2391;47.212;7.542;2023-08-24T00:24:04;4.17;;;3.77;;
4754;SDS011;2391;47.212;7.542;2023-08-24T00:26:30;4.60;;;3.87;;
4754;SDS011;2391;47.212;7.542;2023-08-24T00:28:56;4.67;;;3.93;;
4754;SDS011;2391;47.212;7.542;2023-08-24T00:31:21;3.87;;;3.57;;
4754;SDS011;2391;47.212;7.542;2023-08-24T00:33:47;3.40;;;3.07;;
4754;SDS011;2391;47.212;7.542;2023-08-24T00:36:15;3.80;;;3.50;;
4754;SDS011;2391;47.212;7.542;2023-08-24T00:38:41;5.30;;;3.20;;
4754;SDS011;2391;47.212;7.542;2023-08-24T00:41:08;9.00;;;3.77;;
4754;SDS011;2391;47.212;7.542;2023-08-24T00:43:34;5.93;;;3.53;;
4754;SDS011;2391;47.212;7.542;2023-08-24T00:46:01;4.97;;;3.50;;
4754;SDS011;2391;47.212;7.542;2023-08-24T00:48:29;3.97;;;3.70;;
4754;SDS011;2391;47.212;7.542;2023-08-24T00:50:58;3.77;;;3.47;;
4754;SDS011;2391;47.212;7.542;2023-08-24T00:53:25;6.87;;;3.83;;
4754;SDS011;2391;47.212;7.542;2023-08-24T00:55:53;4.13;;;3.50;;
4754;SDS011;2391;47.212;7.542;2023-08-24T00:58:19;4.43;;;3.93;;
4754;SDS011;2391;47.212;7.542;2023-08-24T01:00:46;3.80;;;3.50;;
4754;SDS011;2391;47.212;7.542;2023-08-24T01:03:13;5.20;;;3.40;;
4754;SDS011;2391;47.212;7.542;2023-08-24T01:05:39;5.53;;;4.27;;
4754;SDS011;2391;47.212;7.542;2023-08-24T01:08:05;5.20;;;3.93;;
4754;SDS011;2391;47.212;7.542;2023-08-24T01:10:35;5.97;;;3.90;;
4754;SDS011;2391;47.212;7.542;2023-08-24T01:13:09;3.73;;;3.43;;
4754;SDS011;2391;47.212;7.542;2023-08-24T01:18:16;4.20;;;3.80;;
4754;SDS011;2391;47.212;7.542;2023-08-24T01:20:44;8.03;;;4.30;;
4754;SDS011;2391;47.212;7.542;2023-08-24T01:26:13;4.03;;;3.77;;
4754;SDS011;2391;47.212;7.542;2023-08-24T01:28:43;10.00;;;4.13;;
4754;SDS011;2391;47.212;7.542;2023-08-24T01:31:10;4.50;;;4.00;;
4754;SDS011;2391;47.212;7.542;2023-08-24T01:33:36;5.30;;;3.93;;
4754;SDS011;2391;47.212;7.542;2023-08-24T01:36:02;4.70;;;4.13;;
4754;SDS011;2391;47.212;7.542;2023-08-24T01:38:28;4.30;;;3.93;;
4754;SDS011;2391;47.212;7.542;2023-08-24T01:41:19;9.13;;;4.30;;
4754;SDS011;2391;47.212;7.542;2023-08-24T01:43:34;4.20;;;3.67;;
4754;SDS011;2391;47.212;7.542;2023-08-24T01:46:06;4.70;;;4.00;;
4754;SDS011;2391;47.212;7.542;2023-08-24T01:48:30;9.37;;;4.87;;
4754;SDS011;2391;47.212;7.542;2023-08-24T01:50:57;3.77;;;3.47;;
4754;SDS011;2391;47.212;7.542;2023-08-24T01:53:26;4.50;;;4.10;;
4754;SDS011;2391;47.212;7.542;2023-08-24T01:55:54;7.47;;;4.30;;
4754;SDS011;2391;47.212;7.542;2023-08-24T01:58:20;10.27;;;4.20;;
4754;SDS011;2391;47.212;7.542;2023-08-24T02:00:46;4.40;;;4.00;;
4754;SDS011;2391;47.212;7.542;2023-08-24T02:03:11;4.17;;;3.87;;
4754;SDS011;2391;47.212;7.542;2023-08-24T02:05:37;4.80;;;3.73;;
4754;SDS011;2391;47.212;7.542;2023-08-24T02:08:03;8.03;;;3.67;;
4754;SDS011;2391;47.212;7.542;2023-08-24T02:10:29;6.20;;;3.40;;
4754;SDS011;2391;47.212;7.542;2023-08-24T02:12:55;4.03;;;3.73;;
4754;SDS011;2391;47.212;7.542;2023-08-24T02:15:20;4.13;;;3.83;;
4754;SDS011;2391;47.212;7.542;2023-08-24T02:17:46;8.70;;;3.73;;
4754;SDS011;2391;47.212;7.542;2023-08-24T02:20:12;3.27;;;2.90;;
4754;SDS011;2391;47.212;7.542;2023-08-24T02:22:38;4.37;;;3.30;;
4754;SDS011;2391;47.212;7.542;2023-08-24T02:25:09;4.47;;;3.50;;
4754;SDS011;2391;47.212;7.542;2023-08-24T02:27:35;4.20;;;3.40;;
4754;SDS011;2391;47.212;7.542;2023-08-24T02:30:00;4.70;;;3.63;;
4754;SDS011;2391;47.212;7.542;2023-08-24T02:32:26;3.63;;;3.33;;
4754;SDS011;2391;47.212;7.542;2023-08-24T02:34:52;4.20;;;3.57;;
4754;SDS011;2391;47.212;7.542;2023-08-24T02:37:17;8.53;;;3.77;;
4754;SDS011;2391;47.212;7.542;2023-08-24T02:39:43;3.50;;;3.20;;
4754;SDS011;2391;47.212;7.542;2023-08-24T02:42:09;7.00;;;3.80;;
4754;SDS011;2391;47.212;7.542;2023-08-24T02:44:35;5.23;;;3.60;;
4754;SDS011;2391;47.212;7.542;2023-08-24T02:47:01;9.20;;;3.73;;
4754;SDS011;2391;47.212;7.542;2023-08-24T02:49:26;5.10;;;4.20;;
4754;SDS011;2391;47.212;7.542;2023-08-24T02:51:52;3.77;;;3.50;;
4754;SDS011;2391;47.212;7.542;2023-08-24T02:54:18;11.03;;;3.63;;
4754;SDS011;2391;47.212;7.542;2023-08-24T02:56:45;3.60;;;3.27;;
4754;SDS011;2391;47.212;7.542;2023-08-24T02:59:11;4.03;;;3.57;;
4754;SDS011;2391;47.212;7.542;2023-08-24T03:01:36;3.63;;;3.30;;
4754;SDS011;2391;47.212;7.542;2023-08-24T03:04:03;4.30;;;3.90;;
4754;SDS011;2391;47.212;7.542;2023-08-24T03:06:30;4.93;;;3.50;;
4754;SDS011;2391;47.212;7.542;2023-08-24T03:08:56;6.80;;;3.80;;
4754;SDS011;2391;47.212;7.542;2023-08-24T03:11:23;3.70;;;3.40;;
4754;SDS011;2391;47.212;7.542;2023-08-24T03:13:48;3.50;;;3.20;;
4754;SDS011;2391;47.212;7.542;2023-08-24T03:16:14;6.63;;;4.37;;
4754;SDS011;2391;47.212;7.542;2023-08-24T03:18:40;3.80;;;3.43;;
4754;SDS011;2391;47.212;7.542;2023-08-24T03:21:05;4.77;;;3.80;;
4754;SDS011;2391;47.212;7.542;2023-08-24T03:23:32;3.50;;;3.20;;
4754;SDS011;2391;47.212;7.542;2023-08-24T03:25:57;5.33;;;3.57;;
4754;SDS011;2391;47.212;7.542;2023-08-24T03:28:23;4.27;;;3.87;;
4754;SDS011;2391;47.212;7.542;2023-08-24T03:30:52;8.53;;;4.73;;
4754;SDS011;2391;47.212;7.542;2023-08-24T03:33:20;3.40;;;3.20;;
4754;SDS011;2391;47.212;7.542;2023-08-24T03:35:46;4.57;;;4.10;;
4754;SDS011;2391;47.212;7.542;2023-08-24T03:38:11;3.80;;;3.50;;
4754;SDS011;2391;47.212;7.542;2023-08-24T03:40:37;8.13;;;4.33;;
4754;SDS011;2391;47.212;7.542;2023-08-24T03:43:03;4.20;;;3.80;;
4754;SDS011;2391;47.212;7.542;2023-08-24T03:45:29;5.57;;;4.03;;
4754;SDS011;2391;47.212;7.542;2023-08-24T03:47:55;5.57;;;3.87;;
4754;SDS011;2391;47.212;7.542;2023-08-24T03:50:21;9.93;;;4.07;;
4754;SDS011;2391;47.212;7.542;2023-08-24T03:52:48;4.57;;;4.20;;
4754;SDS011;2391;47.212;7.542;2023-08-24T03:55:15;7.13;;;4.50;;
4754;SDS011;2391;47.212;7.542;2023-08-24T03:57:42;7.03;;;3.90;;
4754;SDS011;2391;47.212;7.542;2023-08-24T04:00:08;4.70;;;4.30;;
4754;SDS011;2391;47.212;7.542;2023-08-24T04:02:40;4.43;;;4.00;;
4754;SDS011;2391;47.212;7.542;2023-08-24T04:05:04;5.67;;;3.90;;
4754;SDS011;2391;47.212;7.542;2023-08-24T04:07:30;4.67;;;4.27;;
4754;SDS011;2391;47.212;7.542;2023-08-24T04:09:57;4.70;;;4.30;;
4754;SDS011;2391;47.212;7.542;2023-08-24T04:12:22;5.23;;;3.73;;
4754;SDS011;2391;47.212;7.542;2023-08-24T04:14:48;4.73;;;3.60;;
4754;SDS011;2391;47.212;7.542;2023-08-24T04:17:14;4.67;;;4.23;;
4754;SDS011;2391;47.212;7.542;2023-08-24T04:19:40;5.03;;;4.00;;
4754;SDS011;2391;47.212;7.542;2023-08-24T04:22:06;7.97;;;4.00;;
4754;SDS011;2391;47.212;7.542;2023-08-24T04:24:32;4.70;;;3.87;;
4754;SDS011;2391;47.212;7.542;2023-08-24T04:26:57;4.83;;;4.30;;
4754;SDS011;2391;47.212;7.542;2023-08-24T04:29:23;5.30;;;4.43;;
4754;SDS011;2391;47.212;7.542;2023-08-24T04:31:49;4.50;;;4.10;;
4754;SDS011;2391;47.212;7.542;2023-08-24T04:34:14;6.43;;;4.20;;
4754;SDS011;2391;47.212;7.542;2023-08-24T04:36:40;5.03;;;4.57;;
4754;SDS011;2391;47.212;7.542;2023-08-24T04:39:06;5.10;;;4.10;;
4754;SDS011;2391;47.212;7.542;2023-08-24T04:41:31;6.67;;;3.73;;
4754;SDS011;2391;47.212;7.542;2023-08-24T04:43:57;4.67;;;4.27;;
4754;SDS011;2391;47.212;7.542;2023-08-24T04:46:23;7.23;;;4.00;;
4754;SDS011;2391;47.212;7.542;2023-08-24T04:48:49;7.80;;;4.20;;
4754;SDS011;2391;47.212;7.542;2023-08-24T04:51:15;7.87;;;4.43;;
4754;SDS011;2391;47.212;7.542;2023-08-24T04:53:40;7.30;;;4.87;;
4754;SDS011;2391;47.212;7.542;2023-08-24T04:56:06;5.63;;;4.90;;
4754;SDS011;2391;47.212;7.542;2023-08-24T04:58:32;5.80;;;4.80;;
4754;SDS011;2391;47.212;7.542;2023-08-24T05:01:00;5.27;;;4.47;;
4754;SDS011;2391;47.212;7.542;2023-08-24T05:03:25;8.00;;;4.77;;
4754;SDS011;2391;47.212;7.542;2023-08-24T05:05:51;12.63;;;4.63;;
4754;SDS011;2391;47.212;7.542;2023-08-24T05:08:17;5.63;;;4.70;;
4754;SDS011;2391;47.212;7.542;2023-08-24T05:10:43;9.87;;;5.27;;
4754;SDS011;2391;47.212;7.542;2023-08-24T05:13:09;5.93;;;4.70;;
4754;SDS011;2391;47.212;7.542;2023-08-24T05:15:35;8.10;;;4.80;;
4754;SDS011;2391;47.212;7.542;2023-08-24T05:18:00;7.03;;;4.93;;
4754;SDS011;2391;47.212;7.542;2023-08-24T05:20:26;9.80;;;4.40;;
4754;SDS011;2391;47.212;7.542;2023-08-24T05:22:52;22.37;;;4.83;;
4754;SDS011;2391;47.212;7.542;2023-08-24T05:25:20;8.90;;;4.50;;
4754;SDS011;2391;47.212;7.542;2023-08-24T05:27:47;13.60;;;4.60;;
4754;SDS011;2391;47.212;7.542;2023-08-24T05:30:13;10.03;;;5.70;;
4754;SDS011;2391;47.212;7.542;2023-08-24T05:32:38;5.80;;;4.57;;
4754;SDS011;2391;47.212;7.542;2023-08-24T05:35:09;8.40;;;5.43;;
4754;SDS011;2391;47.212;7.542;2023-08-24T05:37:32;5.50;;;4.87;;
4754;SDS011;2391;47.212;7.542;2023-08-24T05:39:59;9.80;;;5.63;;
4754;SDS011;2391;47.212;7.542;2023-08-24T05:42:25;10.37;;;4.50;;
4754;SDS011;2391;47.212;7.542;2023-08-24T05:44:51;14.07;;;5.07;;
4754;SDS011;2391;47.212;7.542;2023-08-24T05:47:17;6.30;;;5.10;;
4754;SDS011;2391;47.212;7.542;2023-08-24T05:49:42;9.23;;;5.20;;
4754;SDS011;2391;47.212;7.542;2023-08-24T05:52:08;7.10;;;5.50;;
4754;SDS011;2391;47.212;7.542;2023-08-24T05:54:36;8.40;;;5.07;;
4754;SDS011;2391;47.212;7.542;2023-08-24T05:57:02;11.67;;;5.27;;
4754;SDS011;2391;47.212;7.542;2023-08-24T05:59:29;9.70;;;5.50;;
4754;SDS011;2391;47.212;7.542;2023-08-24T06:01:55;11.00;;;5.07;;
4754;SDS011;2391;47.212;7.542;2023-08-24T06:04:21;5.63;;;5.20;;
4754;SDS011;2391;47.212;7.542;2023-08-24T06:06:47;6.23;;;4.60;;
4754;SDS011;2391;47.212;7.542;2023-08-24T06:09:12;5.73;;;5.23;;
4754;SDS011;2391;47.212;7.542;2023-08-24T06:11:38;7.50;;;5.50;;
4754;SDS011;2391;47.212;7.542;2023-08-24T06:14:06;8.43;;;5.77;;
4754;SDS011;2391;47.212;7.542;2023-08-24T06:16:32;12.30;;;5.97;;
4754;SDS011;2391;47.212;7.542;2023-08-24T06:18:58;8.10;;;6.07;;
4754;SDS011;2391;47.212;7.542;2023-08-24T06:21:24;10.77;;;5.90;;
4754;SDS011;2391;47.212;7.542;2023-08-24T06:23:50;5.90;;;5.30;;
4754;SDS011;2391;47.212;7.542;2023-08-24T06:26:16;13.93;;;5.33;;
4754;SDS011;2391;47.212;7.542;2023-08-24T06:28:42;9.90;;;6.07;;
4754;SDS011;2391;47.212;7.542;2023-08-24T06:31:08;10.00;;;5.77;;
4754;SDS011;2391;47.212;7.542;2023-08-24T06:33:34;9.33;;;5.00;;
4754;SDS011;2391;47.212;7.542;2023-08-24T06:36:01;7.20;;;5.30;;
4754;SDS011;2391;47.212;7.542;2023-08-24T06:38:27;7.70;;;5.37;;
4754;SDS011;2391;47.212;7.542;2023-08-24T06:40:54;4.83;;;4.40;;
4754;SDS011;2391;47.212;7.542;2023-08-24T06:43:20;19.37;;;5.63;;
4754;SDS011;2391;47.212;7.542;2023-08-24T06:45:46;8.90;;;5.57;;
4754;SDS011;2391;47.212;7.542;2023-08-24T06:48:11;8.13;;;5.83;;
4754;SDS011;2391;47.212;7.542;2023-08-24T06:50:37;6.03;;;5.40;;
4754;SDS011;2391;47.212;7.542;2023-08-24T06:53:04;10.37;;;5.70;;
4754;SDS011;2391;47.212;7.542;2023-08-24T06:55:33;6.50;;;5.50;;
4754;SDS011;2391;47.212;7.542;2023-08-24T06:57:58;8.13;;;6.13;;
4754;SDS011;2391;47.212;7.542;2023-08-24T07:00:24;5.70;;;4.80;;
4754;SDS011;2391;47.212;7.542;2023-08-24T07:02:50;6.20;;;5.23;;
4754;SDS011;2391;47.212;7.542;2023-08-24T07:05:17;6.00;;;5.20;;
4754;SDS011;2391;47.212;7.542;2023-08-24T07:07:46;7.43;;;5.57;;
4754;SDS011;2391;47.212;7.542;2023-08-24T07:10:12;9.43;;;5.33;;
4754;SDS011;2391;47.212;7.542;2023-08-24T07:12:38;6.57;;;5.57;;
4754;SDS011;2391;47.212;7.542;2023-08-24T07:15:07;7.03;;;4.90;;
4754;SDS011;2391;47.212;7.542;2023-08-24T07:17:33;9.00;;;6.30;;
4754;SDS011;2391;47.212;7.542;2023-08-24T07:19:59;8.80;;;5.97;;
4754;SDS011;2391;47.212;7.542;2023-08-24T07:22:25;6.33;;;5.73;;
4754;SDS011;2391;47.212;7.542;2023-08-24T07:24:52;7.17;;;5.90;;
4754;SDS011;2391;47.212;7.542;2023-08-24T07:27:18;8.07;;;6.17;;
4754;SDS011;2391;47.212;7.542;2023-08-24T07:29:44;11.63;;;5.40;;
4754;SDS011;2391;47.212;7.542;2023-08-24T07:32:10;8.60;;;5.80;;
4754;SDS011;2391;47.212;7.542;2023-08-24T07:34:35;14.00;;;6.33;;
4754;SDS011;2391;47.212;7.542;2023-08-24T07:37:01;8.67;;;4.33;;
4754;SDS011;2391;47.212;7.542;2023-08-24T07:39:27;9.97;;;5.47;;
4754;SDS011;2391;47.212;7.542;2023-08-24T07:41:53;7.50;;;5.20;;
4754;SDS011;2391;47.212;7.542;2023-08-24T07:44:18;7.67;;;5.60;;
4754;SDS011;2391;47.212;7.542;2023-08-24T07:46:44;6.80;;;6.00;;
4754;SDS011;2391;47.212;7.542;2023-08-24T07:49:10;6.03;;;5.43;;
4754;SDS011;2391;47.212;7.542;2023-08-24T07:51:36;8.00;;;6.07;;
4754;SDS011;2391;47.212;7.542;2023-08-24T07:54:02;10.10;;;5.73;;
4754;SDS011;2391;47.212;7.542;2023-08-24T07:56:29;14.33;;;5.23;;
4754;SDS011;2391;47.212;7.542;2023-08-24T07:58:55;8.37;;;5.00;;
4754;SDS011;2391;47.212;7.542;2023-08-24T08:01:21;6.83;;;5.00;;
4754;SDS011;2391;47.212;7.542;2023-08-24T08:03:47;6.30;;;5.00;;
4754;SDS011;2391;47.212;7.542;2023-08-24T08:06:13;8.43;;;5.03;;
4754;SDS011;2391;47.212;7.542;2023-08-24T08:08:39;6.73;;;4.60;;
4754;SDS011;2391;47.212;7.542;2023-08-24T08:11:04;6.13;;;5.03;;
4754;SDS011;2391;47.212;7.542;2023-08-24T08:13:30;6.50;;;4.80;;
4754;SDS011;2391;47.212;7.542;2023-08-24T08:16:03;10.50;;;6.13;;
4754;SDS011;2391;47.212;7.542;2023-08-24T08:18:30;9.40;;;5.50;;
4754;SDS011;2391;47.212;7.542;2023-08-24T08:20:57;8.80;;;4.97;;
4754;SDS011;2391;47.212;7.542;2023-08-24T08:23:22;9.80;;;5.10;;
4754;SDS011;2391;47.212;7.542;2023-08-24T08:25:48;8.27;;;4.90;;
4754;SDS011;2391;47.212;7.542;2023-08-24T08:28:14;11.00;;;4.90;;
4754;SDS011;2391;47.212;7.542;2023-08-24T08:30:39;8.63;;;5.90;;
4754;SDS011;2391;47.212;7.542;2023-08-24T08:33:05;8.93;;;5.20;;
4754;SDS011;2391;47.212;7.542;2023-08-24T08:35:31;11.93;;;5.27;;
4754;SDS011;2391;47.212;7.542;2023-08-24T08:37:57;7.83;;;5.47;;
4754;SDS011;2391;47.212;7.542;2023-08-24T08:40:23;10.37;;;5.60;;
4754;SDS011;2391;47.212;7.542;2023-08-24T08:42:53;7.17;;;4.50;;
4754;SDS011;2391;47.212;7.542;2023-08-24T08:45:18;8.83;;;4.63;;
4754;SDS011;2391;47.212;7.542;2023-08-24T08:47:48;11.37;;;4.67;;
4754;SDS011;2391;47.212;7.542;2023-08-24T08:50:14;8.30;;;4.73;;
4754;SDS011;2391;47.212;7.542;2023-08-24T08:52:40;4.23;;;3.90;;
4754;SDS011;2391;47.212;7.542;2023-08-24T08:55:06;8.60;;;4.30;;
4754;SDS011;2391;47.212;7.542;2023-08-24T08:57:34;9.93;;;4.07;;
4754;SDS011;2391;47.212;7.542;2023-08-24T09:00:00;12.73;;;3.97;;
4754;SDS011;2391;47.212;7.542;2023-08-24T09:02:26;7.67;;;4.20;;
4754;SDS011;2391;47.212;7.542;2023-08-24T09:04:54;12.37;;;4.50;;
4754;SDS011;2391;47.212;7.542;2023-08-24T09:07:20;8.10;;;4.20;;
4754;SDS011;2391;47.212;7.542;2023-08-24T09:09:46;10.17;;;3.43;;
4754;SDS011;2391;47.212;7.542;2023-08-24T09:12:11;10.40;;;3.87;;
4754;SDS011;2391;47.212;7.542;2023-08-24T09:14:37;13.70;;;4.40;;
4754;SDS011;2391;47.212;7.542;2023-08-24T09:17:03;6.83;;;3.83;;
4754;SDS011;2391;47.212;7.542;2023-08-24T09:19:29;5.43;;;4.00;;
4754;SDS011;2391;47.212;7.542;2023-08-24T09:21:59;24.37;;;4.60;;
4754;SDS011;2391;47.212;7.542;2023-08-24T09:24:30;9.97;;;4.43;;
4754;SDS011;2391;47.212;7.542;2023-08-24T09:26:57;7.60;;;4.07;;
4754;SDS011;2391;47.212;7.542;2023-08-24T09:29:23;7.67;;;4.57;;
4754;SDS011;2391;47.212;7.542;2023-08-24T09:31:50;6.57;;;4.40;;
4754;SDS011;2391;47.212;7.542;2023-08-24T09:34:19;5.57;;;4.00;;
4754;SDS011;2391;47.212;7.542;2023-08-24T09:36:46;8.40;;;4.73;;
4754;SDS011;2391;47.212;7.542;2023-08-24T09:39:12;7.10;;;4.27;;
4754;SDS011;2391;47.212;7.542;2023-08-24T09:41:43;8.00;;;4.40;;
4754;SDS011;2391;47.212;7.542;2023-08-24T09:44:10;7.07;;;4.30;;
4754;SDS011;2391;47.212;7.542;2023-08-24T09:46:38;7.50;;;4.27;;
4754;SDS011;2391;47.212;7.542;2023-08-24T09:49:05;5.93;;;4.50;;
4754;SDS011;2391;47.212;7.542;2023-08-24T09:51:32;3.90;;;3.60;;
4754;SDS011;2391;47.212;7.542;2023-08-24T09:54:00;5.57;;;3.97;;
4754;SDS011;2391;47.212;7.542;2023-08-24T09:56:30;8.97;;;4.23;;
4754;SDS011;2391;47.212;7.542;2023-08-24T09:58:58;7.57;;;4.27;;
4754;SDS011;2391;47.212;7.542;2023-08-24T10:01:28;5.60;;;3.83;;
4754;SDS011;2391;47.212;7.542;2023-08-24T10:03:55;6.03;;;3.80;;
4754;SDS011;2391;47.212;7.542;2023-08-24T10:06:23;11.30;;;4.83;;
4754;SDS011;2391;47.212;7.542;2023-08-24T10:08:53;8.70;;;4.00;;
4754;SDS011;2391;47.212;7.542;2023-08-24T10:11:22;8.33;;;4.17;;
4754;SDS011;2391;47.212;7.542;2023-08-24T10:16:40;6.20;;;4.00;;
4754;SDS011;2391;47.212;7.542;2023-08-24T10:19:08;8.30;;;4.13;;
4754;SDS011;2391;47.212;7.542;2023-08-24T10:21:34;10.23;;;4.37;;
4754;SDS011;2391;47.212;7.542;2023-08-24T10:24:02;6.93;;;4.00;;
4754;SDS011;2391;47.212;7.542;2023-08-24T10:26:28;8.67;;;4.00;;
4754;SDS011;2391;47.212;7.542;2023-08-24T10:28:54;4.90;;;3.90;;
4754;SDS011;2391;47.212;7.542;2023-08-24T10:31:22;7.23;;;4.23;;
4754;SDS011;2391;47.212;7.542;2023-08-24T10:33:49;9.70;;;4.83;;
4754;SDS011;2391;47.212;7.542;2023-08-24T10:36:16;10.50;;;4.40;;
4754;SDS011;2391;47.212;7.542;2023-08-24T10:38:43;5.50;;;3.90;;
4754;SDS011;2391;47.212;7.542;2023-08-24T10:41:09;12.90;;;3.33;;
4754;SDS011;2391;47.212;7.542;2023-08-24T10:43:37;17.23;;;4.63;;
4754;SDS011;2391;47.212;7.542;2023-08-24T10:46:04;10.87;;;3.57;;
4754;SDS011;2391;47.212;7.542;2023-08-24T10:49:18;6.70;;;3.47;;
4754;SDS011;2391;47.212;7.542;2023-08-24T10:53:45;7.57;;;3.70;;
4754;SDS011;2391;47.212;7.542;2023-08-24T10:56:18;9.90;;;3.70;;
4754;SDS011;2391;47.212;7.542;2023-08-24T10:58:42;6.83;;;3.50;;
4754;SDS011;2391;47.212;7.542;2023-08-24T11:01:15;8.53;;;4.40;;
4754;SDS011;2391;47.212;7.542;2023-08-24T11:03:56;8.63;;;3.47;;
4754;SDS011;2391;47.212;7.542;2023-08-24T11:06:22;24.67;;;3.87;;
4754;SDS011;2391;47.212;7.542;2023-08-24T11:09:04;10.07;;;3.77;;
4754;SDS011;2391;47.212;7.542;2023-08-24T11:11:35;7.13;;;3.70;;
4754;SDS011;2391;47.212;7.542;2023-08-24T11:14:14;14.77;;;3.60;;
4754;SDS011;2391;47.212;7.542;2023-08-24T11:16:43;18.13;;;4.33;;
4754;SDS011;2391;47.212;7.542;2023-08-24T11:19:11;11.73;;;4.03;;
4754;SDS011;2391;47.212;7.542;2023-08-24T11:21:41;10.30;;;3.43;;
4754;SDS011;2391;47.212;7.542;2023-08-24T11:24:09;10.00;;;3.93;;
4754;SDS011;2391;47.212;7.542;2023-08-24T11:26:41;6.17;;;4.00;;
4754;SDS011;2391;47.212;7.542;2023-08-24T11:29:08;8.47;;;3.80;;
4754;SDS011;2391;47.212;7.542;2023-08-24T11:31:35;7.13;;;3.80;;
4754;SDS011;2391;47.212;7.542;2023-08-24T11:34:02;14.53;;;4.37;;
4754;SDS011;2391;47.212;7.542;2023-08-24T11:36:30;10.93;;;4.17;;
4754;SDS011;2391;47.212;7.542;2023-08-24T11:38:57;8.40;;;3.80;;
4754;SDS011;2391;47.212;7.542;2023-08-24T11:41:25;8.73;;;4.10;;
4754;SDS011;2391;47.212;7.542;2023-08-24T11:43:58;10.37;;;3.97;;
4754;SDS011;2391;47.212;7.542;2023-08-24T11:46:20;18.37;;;3.90;;
4754;SDS011;2391;47.212;7.542;2023-08-24T11:48:46;10.43;;;3.80;;
4754;SDS011;2391;47.212;7.542;2023-08-24T11:51:12;8.70;;;4.47;;
4754;SDS011;2391;47.212;7.542;2023-08-24T11:53:43;6.87;;;4.00;;
4754;SDS011;2391;47.212;7.542;2023-08-24T11:56:10;10.20;;;4.20;;
4754;SDS011;2391;47.212;7.542;2023-08-24T11:58:43;13.70;;;3.60;;
4754;SDS011;2391;47.212;7.542;2023-08-24T12:01:09;4.73;;;3.60;;
4754;SDS011;2391;47.212;7.542;2023-08-24T12:03:37;7.33;;;4.10;;
4754;SDS011;2391;47.212;7.542;2023-08-24T12:06:10;6.43;;;3.77;;
4754;SDS011;2391;47.212;7.542;2023-08-24T12:08:38;15.43;;;4.77;;
4754;SDS011;2391;47.212;7.542;2023-08-24T12:11:12;11.40;;;3.43;;
4754;SDS011;2391;47.212;7.542;2023-08-24T12:13:42;16.10;;;4.00;;
4754;SDS011;2391;47.212;7.542;2023-08-24T12:16:10;12.60;;;3.93;;
4754;SDS011;2391;47.212;7.542;2023-08-24T12:21:21;9.53;;;4.20;;
4754;SDS011;2391;47.212;7.542;2023-08-24T12:24:00;15.17;;;4.10;;
4754;SDS011;2391;47.212;7.542;2023-08-24T12:26:29;9.30;;;4.07;;
4754;SDS011;2391;47.212;7.542;2023-08-24T12:28:58;8.40;;;3.80;;
4754;SDS011;2391;47.212;7.542;2023-08-24T12:31:28;8.53;;;3.83;;
4754;SDS011;2391;47.212;7.542;2023-08-24T12:36:33;15.67;;;3.87;;
4754;SDS011;2391;47.212;7.542;2023-08-24T12:39:02;12.37;;;4.23;;
4754;SDS011;2391;47.212;7.542;2023-08-24T12:41:32;11.57;;;4.00;;
4754;SDS011;2391;47.212;7.542;2023-08-24T12:43:59;4.30;;;3.00;;
4754;SDS011;2391;47.212;7.542;2023-08-24T12:46:24;4.97;;;3.50;;
4754;SDS011;2391;47.212;7.542;2023-08-24T12:48:50;4.47;;;3.40;;
4754;SDS011;2391;47.212;7.542;2023-08-24T12:51:16;6.83;;;3.53;;
4754;SDS011;2391;47.212;7.542;2023-08-24T12:53:43;15.87;;;4.40;;
4754;SDS011;2391;47.212;7.542;2023-08-24T12:56:09;9.47;;;3.63;;
4754;SDS011;2391;47.212;7.542;2023-08-24T12:58:34;7.23;;;3.33;;
4754;SDS011;2391;47.212;7.542;2023-08-24T13:01:00;9.27;;;3.90;;
4754;SDS011;2391;47.212;7.542;2023-08-24T13:03:26;18.23;;;3.73;;
4754;SDS011;2391;47.212;7.542;2023-08-24T13:05:51;14.90;;;3.57;;
4754;SDS011;2391;47.212;7.542;2023-08-24T13:08:17;13.50;;;3.53;;
4754;SDS011;2391;47.212;7.542;2023-08-24T13:10:43;6.03;;;3.43;;
4754;SDS011;2391;47.212;7.542;2023-08-24T13:13:09;13.97;;;4.10;;
4754;SDS011;2391;47.212;7.542;2023-08-24T13:15:34;6.97;;;3.50;;
4754;SDS011;2391;47.212;7.542;2023-08-24T13:18:00;20.63;;;3.73;;
4754;SDS011;2391;47.212;7.542;2023-08-24T13:20:26;10.30;;;3.70;;
4754;SDS011;2391;47.212;7.542;2023-08-24T13:22:56;6.37;;;3.10;;
4754;SDS011;2391;47.212;7.542;2023-08-24T13:25:19;14.70;;;3.20;;
4754;SDS011;2391;47.212;7.542;2023-08-24T13:27:45;22.63;;;3.77;;
4754;SDS011;2391;47.212;7.542;2023-08-24T13:30:11;8.27;;;3.43;;
4754;SDS011;2391;47.212;7.542;2023-08-24T13:32:38;11.60;;;3.50;;
4754;SDS011;2391;47.212;7.542;2023-08-24T13:35:04;12.97;;;3.70;;
4754;SDS011;2391;47.212;7.542;2023-08-24T13:37:30;10.60;;;3.40;;
4754;SDS011;2391;47.212;7.542;2023-08-24T13:39:57;12.80;;;3.60;;
4754;SDS011;2391;47.212;7.542;2023-08-24T13:42:24;4.87;;;3.30;;
4754;SDS011;2391;47.212;7.542;2023-08-24T13:44:49;9.53;;;3.37;;
4754;SDS011;2391;47.212;7.542;2023-08-24T13:47:15;20.23;;;3.57;;
4754;SDS011;2391;47.212;7.542;2023-08-24T13:49:41;18.60;;;4.40;;
4754;SDS011;2391;47.212;7.542;2023-08-24T13:52:07;10.20;;;4.00;;
4754;SDS011;2391;47.212;7.542;2023-08-24T13:54:33;7.60;;;3.57;;
4754;SDS011;2391;47.212;7.542;2023-08-24T13:57:00;7.97;;;3.83;;
4754;SDS011;2391;47.212;7.542;2023-08-24T13:59:27;15.63;;;3.57;;
4754;SDS011;2391;47.212;7.542;2023-08-24T14:01:54;12.00;;;3.30;;
4754;SDS011;2391;47.212;7.542;2023-08-24T14:04:19;9.23;;;3.17;;
4754;SDS011;2391;47.212;7.542;2023-08-24T14:06:45;12.27;;;4.60;;
4754;SDS011;2391;47.212;7.542;2023-08-24T14:09:13;20.17;;;3.90;;
4754;SDS011;2391;47.212;7.542;2023-08-24T14:11:39;10.07;;;3.57;;
4754;SDS011;2391;47.212;7.542;2023-08-24T14:14:04;14.53;;;3.60;;
4754;SDS011;2391;47.212;7.542;2023-08-24T14:16:30;16.30;;;3.43;;
4754;SDS011;2391;47.212;7.542;2023-08-24T14:18:56;14.37;;;3.87;;
4754;SDS011;2391;47.212;7.542;2023-08-24T14:21:21;11.30;;;3.40;;
4754;SDS011;2391;47.212;7.542;2023-08-24T14:23:49;7.70;;;3.70;;
4754;SDS011;2391;47.212;7.542;2023-08-24T14:26:15;18.40;;;3.40;;
4754;SDS011;2391;47.212;7.542;2023-08-24T14:28:51;26.30;;;3.50;;
4754;SDS011;2391;47.212;7.542;2023-08-24T14:31:22;8.93;;;3.07;;
4754;SDS011;2391;47.212;7.542;2023-08-24T14:33:49;21.53;;;3.50;;
4754;SDS011;2391;47.212;7.542;2023-08-24T14:36:17;7.73;;;3.43;;
4754;SDS011;2391;47.212;7.542;2023-08-24T14:38:45;10.43;;;3.70;;
4754;SDS011;2391;47.212;7.542;2023-08-24T14:41:12;8.00;;;3.53;;
4754;SDS011;2391;47.212;7.542;2023-08-24T14:43:39;10.13;;;3.87;;
4754;SDS011;2391;47.212;7.542;2023-08-24T14:46:06;6.53;;;3.40;;
4754;SDS011;2391;47.212;7.542;2023-08-24T14:48:32;22.30;;;4.17;;
4754;SDS011;2391;47.212;7.542;2023-08-24T14:50:58;25.40;;;3.90;;
4754;SDS011;2391;47.212;7.542;2023-08-24T14:53:24;12.60;;;3.30;;
4754;SDS011;2391;47.212;7.542;2023-08-24T14:55:52;9.80;;;3.13;;
4754;SDS011;2391;47.212;7.542;2023-08-24T14:58:22;9.03;;;2.90;;
4754;SDS011;2391;47.212;7.542;2023-08-24T15:00:49;8.90;;;3.37;;
4754;SDS011;2391;47.212;7.542;2023-08-24T15:03:17;17.63;;;4.83;;
4754;SDS011;2391;47.212;7.542;2023-08-24T15:05:55;11.67;;;3.40;;
4754;SDS011;2391;47.212;7.542;2023-08-24T15:08:25;9.77;;;3.03;;
4754;SDS011;2391;47.212;7.542;2023-08-24T15:10:53;14.70;;;2.73;;
4754;SDS011;2391;47.212;7.542;2023-08-24T15:13:20;7.90;;;3.10;;
4754;SDS011;2391;47.212;7.542;2023-08-24T15:15:45;8.53;;;2.90;;
4754;SDS011;2391;47.212;7.542;2023-08-24T15:18:11;10.90;;;2.87;;
4754;SDS011;2391;47.212;7.542;2023-08-24T15:20:37;12.47;;;3.63;;
4754;SDS011;2391;47.212;7.542;2023-08-24T15:23:03;7.00;;;3.10;;
4754;SDS011;2391;47.212;7.542;2023-08-24T15:25:29;9.50;;;3.77;;
4754;SDS011;2391;47.212;7.542;2023-08-24T15:27:55;7.27;;;2.90;;